Overview Statistics Trail Chart Weather Telemetry Raw packets
 

This is the latest recevied weather packets stored in our database for station/object IU5GBO-13. If no packets are shown the sender has not sent any weather packets the latest 10 day(s).

<< 25 26 27 28 29 30 31 >>
Time Temp. Humidity Pressure Rain* Wind** Luminosity Snow
1777683975 8.89° C 44% 1026.4 hPa - - - -
1777683374 9.44° C 44% 1026.3 hPa - - - -
1777682774 10.56° C 41% 1026.3 hPa - - - -
1777682174 11.67° C 40% 1026.2 hPa - - - -
1777681574 12.78° C 35% 1026.2 hPa - - - -
1777680974 12.78° C 36% 1026.1 hPa - - - -
1777680374 12.78° C 34% 1026.2 hPa - - - -
1777679774 12.78° C 36% 1026.3 hPa - - - -
1777679175 12.22° C 35% 1026.2 hPa - - - -
1777678574 12.22° C 36% 1026.2 hPa - - - -
1777677975 12.78° C 35% 1026.1 hPa - - - -
1777677374 12.78° C 35% 1026.1 hPa - - - -
1777676774 13.33° C 34% 1026 hPa - - - -
1777676174 13.33° C 33% 1026.2 hPa - - - -
1777675574 13.33° C 34% 1026.1 hPa - - - -
1777674975 13.33° C 34% 1026.1 hPa - - - -
1777674374 13.33° C 34% 1026 hPa - - - -
1777673774 13.89° C 29% 1026.1 hPa - - - -
1777673174 14.44° C 28% 1026 hPa - - - -
1777672574 14.44° C 28% 1026 hPa - - - -
1777671975 15° C 28% 1025.9 hPa - - - -
1777671374 15° C 29% 1025.9 hPa - - - -
1777670774 15° C 27% 1025.8 hPa - - - -
1777670174 15° C 27% 1025.7 hPa - - - -
1777669574 15° C 26% 1025.7 hPa - - - -

* Rain since midnight (hover to see other rain measurements)
** Current wind speed in m/s (hover to see current wind gust speed)